Time;durP1;ratioP1;P1;durP2;ratioP2;P2;SDS_P1;SDS_P2;PMS_P1;PMS_P2;Temp;Humidity;BMP_temperature;BMP_pressure;BME280_temperature;BME280_humidity;BME280_pressure;Samples;Min_cycle;Max_cycle;Signal;HPM_P1;HPM_P2
2023/03/19 00:00:13;;;;;;;4.50;3.13;;;11.10;99.90;;;;;;5066697;28;20481;-73
2023/03/19 00:02:44;;;;;;;4.10;3.00;;;11.10;99.90;;;;;;5061665;28;20513;-73
2023/03/19 00:05:11;;;;;;;4.40;3.27;;;11.20;99.90;;;;;;5065636;28;20495;-73
2023/03/19 00:07:38;;;;;;;4.67;3.13;;;11.40;99.90;;;;;;5029228;28;20461;-73
2023/03/19 00:10:06;;;;;;;3.70;2.70;;;11.40;99.90;;;;;;5035254;28;20424;-73
2023/03/19 00:12:33;;;;;;;2.80;2.20;;;11.50;99.90;;;;;;5074774;28;20461;-73
2023/03/19 00:15:00;;;;;;;4.23;3.50;;;11.50;99.90;;;;;;5074108;28;20528;-73
2023/03/19 00:17:27;;;;;;;7.70;3.30;;;11.50;99.90;;;;;;5073646;28;20490;-73
2023/03/19 00:19:56;;;;;;;3.43;2.43;;;11.70;99.90;;;;;;5064069;28;20421;-73
2023/03/19 00:22:23;;;;;;;2.20;2.00;;;11.90;99.90;;;;;;5066587;28;20482;-73
2023/03/19 00:24:52;;;;;;;3.67;2.50;;;12.00;99.90;;;;;;5066619;28;20458;-73
2023/03/19 00:27:19;;;;;;;5.37;2.93;;;12.10;99.90;;;;;;5074064;28;20494;-73
2023/03/19 00:29:46;;;;;;;2.83;2.50;;;12.20;99.90;;;;;;5074493;28;20486;-72
2023/03/19 00:32:13;;;;;;;5.37;3.27;;;12.20;99.90;;;;;;5075072;28;20441;-72
2023/03/19 00:34:40;;;;;;;4.53;2.70;;;12.10;99.90;;;;;;5073292;28;20833;-72
2023/03/19 00:37:10;;;;;;;3.53;2.30;;;12.20;99.90;;;;;;5068919;28;20478;-72
2023/03/19 00:39:37;;;;;;;3.87;2.07;;;12.20;99.90;;;;;;5077172;28;20521;-73
2023/03/19 00:42:05;;;;;;;3.00;2.00;;;12.20;99.90;;;;;;5082335;28;20433;-73
2023/03/19 00:44:33;;;;;;;7.97;3.07;;;12.30;99.90;;;;;;5072048;28;20847;-73
2023/03/19 00:47:01;;;;;;;3.47;2.47;;;12.20;99.90;;;;;;5072742;28;20459;-72
2023/03/19 00:49:27;;;;;;;3.70;2.30;;;12.20;99.90;;;;;;5070157;28;20493;-72
2023/03/19 00:51:54;;;;;;;2.30;2.10;;;12.10;99.90;;;;;;5063785;28;20481;-72
2023/03/19 00:54:23;;;;;;;4.27;2.70;;;12.20;99.90;;;;;;5066796;28;21009;-72
2023/03/19 00:56:50;;;;;;;3.87;2.73;;;12.10;99.90;;;;;;5074114;28;20870;-72
2023/03/19 00:59:17;;;;;;;4.13;3.20;;;12.20;99.90;;;;;;5065386;28;20475;-72
2023/03/19 01:01:44;;;;;;;3.40;3.10;;;12.20;99.90;;;;;;5074397;28;20470;-72
2023/03/19 01:04:11;;;;;;;3.73;2.23;;;12.30;99.90;;;;;;5075659;28;20942;-72
2023/03/19 01:06:41;;;;;;;5.03;3.77;;;12.20;99.90;;;;;;5076039;28;20463;-72
2023/03/19 01:09:08;;;;;;;6.80;3.43;;;12.20;99.90;;;;;;5074452;28;20455;-72
2023/03/19 01:11:37;;;;;;;4.80;3.50;;;12.20;99.90;;;;;;5088998;28;20460;-72
2023/03/19 01:14:04;;;;;;;5.23;3.37;;;12.20;99.90;;;;;;5083364;28;20457;-72
2023/03/19 01:16:31;;;;;;;3.17;2.87;;;12.20;99.90;;;;;;5070099;28;20544;-72
2023/03/19 01:18:58;;;;;;;6.33;3.17;;;12.00;99.90;;;;;;5074437;28;20429;-72
2023/03/19 01:21:26;;;;;;;7.57;3.13;;;11.70;99.90;;;;;;5072902;28;20529;-72
2023/03/19 01:23:53;;;;;;;3.97;3.10;;;11.60;99.90;;;;;;5073582;28;20480;-73
2023/03/19 01:26:20;;;;;;;4.60;3.00;;;11.60;99.90;;;;;;5061307;28;20459;-72
2023/03/19 01:28:48;;;;;;;4.13;3.20;;;11.70;99.90;;;;;;5068258;28;20876;-72
2023/03/19 01:31:16;;;;;;;4.30;3.50;;;11.70;99.90;;;;;;5070967;28;20489;-72
2023/03/19 01:33:42;;;;;;;3.40;2.50;;;11.80;99.90;;;;;;5073515;28;20458;-72
2023/03/19 01:36:11;;;;;;;6.27;3.17;;;11.70;99.90;;;;;;5069465;28;20586;-72
2023/03/19 01:38:38;;;;;;;6.07;3.37;;;11.70;99.90;;;;;;5073158;28;20475;-72
2023/03/19 01:41:05;;;;;;;4.53;2.93;;;11.70;99.90;;;;;;5068582;28;20520;-73
2023/03/19 01:43:32;;;;;;;4.50;2.93;;;11.70;99.90;;;;;;5060099;28;20546;-72
2023/03/19 01:46:06;;;;;;;4.03;3.30;;;11.60;99.90;;;;;;5075071;28;20768;-73
2023/03/19 01:48:39;;;;;;;2.50;1.87;;;11.50;99.90;;;;;;5076181;28;20485;-73
2023/03/19 01:51:07;;;;;;;3.07;2.20;;;11.30;99.90;;;;;;5062667;28;20458;-73
2023/03/19 01:53:35;;;;;;;2.97;2.70;;;11.40;99.90;;;;;;5073798;28;20765;-73
2023/03/19 01:56:08;;;;;;;4.90;2.10;;;11.30;99.90;;;;;;5069271;28;20917;-73
2023/03/19 01:58:35;;;;;;;2.27;1.97;;;11.20;99.90;;;;;;5072227;28;20498;-73
2023/03/19 02:01:04;;;;;;;3.63;2.80;;;11.10;99.90;;;;;;5072845;28;20459;-73
2023/03/19 02:03:31;;;;;;;4.57;3.00;;;11.00;99.90;;;;;;5070893;28;20541;-73
2023/03/19 02:06:00;;;;;;;4.90;2.80;;;11.00;99.90;;;;;;5059987;28;20505;-73
2023/03/19 02:08:28;;;;;;;2.50;2.30;;;11.00;99.90;;;;;;5064843;28;20504;-73
2023/03/19 02:10:59;;;;;;;3.33;2.37;;;10.90;99.90;;;;;;5065425;28;20476;-73
2023/03/19 02:13:26;;;;;;;2.53;2.30;;;10.90;99.90;;;;;;5068616;28;20417;-73
2023/03/19 02:15:53;;;;;;;3.43;2.90;;;10.80;99.90;;;;;;5073906;28;20462;-73
2023/03/19 02:18:24;;;;;;;2.70;1.80;;;10.70;99.90;;;;;;5071167;28;20478;-73
2023/03/19 02:20:58;;;;;;;3.00;2.70;;;10.70;99.90;;;;;;5080103;28;20520;-73
2023/03/19 02:23:34;;;;;;;2.90;2.53;;;10.60;99.90;;;;;;5054685;28;20431;-72
2023/03/19 02:26:07;;;;;;;4.77;2.53;;;10.60;99.90;;;;;;5071025;28;20506;-72
2023/03/19 02:28:35;;;;;;;5.40;3.77;;;10.70;99.90;;;;;;5065997;28;20450;-73
2023/03/19 02:31:02;;;;;;;5.37;2.60;;;10.70;99.90;;;;;;5066358;28;20516;-73
2023/03/19 02:33:31;;;;;;;3.20;2.90;;;10.70;99.90;;;;;;5061265;28;20546;-73
2023/03/19 02:35:59;;;;;;;3.87;3.40;;;10.60;99.90;;;;;;5072166;28;20472;-73
2023/03/19 02:38:27;;;;;;;2.90;2.60;;;10.60;99.90;;;;;;5068861;28;20546;-73
2023/03/19 02:40:58;;;;;;;2.90;2.63;;;10.60;99.90;;;;;;5068785;28;20537;-73
2023/03/19 02:43:26;;;;;;;5.23;2.70;;;10.40;99.90;;;;;;5063318;28;20491;-72
2023/03/19 02:45:54;;;;;;;5.23;2.83;;;10.30;99.90;;;;;;5071185;28;20525;-73
2023/03/19 02:48:21;;;;;;;3.30;2.60;;;10.30;99.90;;;;;;5071727;28;20450;-73
2023/03/19 02:50:48;;;;;;;2.17;1.93;;;10.30;99.90;;;;;;5072414;28;20538;-73
2023/03/19 02:53:15;;;;;;;5.33;2.87;;;10.30;99.90;;;;;;5074719;28;20875;-73
2023/03/19 02:55:42;;;;;;;3.80;2.50;;;10.40;99.90;;;;;;5082555;28;20805;-73
2023/03/19 02:58:10;;;;;;;3.80;2.77;;;10.50;99.90;;;;;;5069751;28;20464;-73
2023/03/19 03:00:38;;;;;;;4.53;2.37;;;10.60;99.90;;;;;;5067227;28;20426;-73
2023/03/19 03:03:07;;;;;;;2.47;2.27;;;10.70;99.90;;;;;;5069260;28;20479;-73
2023/03/19 03:05:35;;;;;;;3.07;2.77;;;10.60;99.90;;;;;;5062755;28;20453;-72
2023/03/19 03:08:03;;;;;;;3.10;2.50;;;10.50;99.90;;;;;;5070174;28;20553;-73
2023/03/19 03:10:30;;;;;;;2.10;1.90;;;10.50;99.90;;;;;;5094694;28;20482;-73
2023/03/19 03:12:57;;;;;;;4.30;2.60;;;10.50;99.90;;;;;;5068466;28;20654;-72
2023/03/19 03:15:25;;;;;;;3.00;2.57;;;10.50;99.90;;;;;;5075344;28;20518;-72
2023/03/19 03:17:55;;;;;;;2.90;2.57;;;10.40;99.90;;;;;;5068148;28;20514;-72
2023/03/19 03:20:25;;;;;;;4.00;2.60;;;10.50;99.90;;;;;;5066237;28;20447;-72
2023/03/19 03:22:52;;;;;;;2.80;2.53;;;10.60;99.90;;;;;;5073884;28;20450;-73
2023/03/19 03:25:19;;;;;;;4.63;2.40;;;10.50;99.90;;;;;;5076137;28;20478;-72
2023/03/19 03:27:48;;;;;;;8.63;3.77;;;10.50;99.90;;;;;;5076223;28;20831;-73
2023/03/19 03:30:16;;;;;;;3.23;2.70;;;10.60;99.90;;;;;;5064813;28;20985;-72
2023/03/19 03:32:44;;;;;;;2.90;2.60;;;10.50;99.90;;;;;;5072442;28;20463;-73
2023/03/19 03:35:17;;;;;;;10.13;3.43;;;10.60;99.90;;;;;;5073731;28;20443;-73
2023/03/19 03:37:44;;;;;;;2.63;2.43;;;10.70;99.90;;;;;;5061240;28;20870;-73
2023/03/19 03:40:13;;;;;;;2.40;2.13;;;10.70;99.90;;;;;;5071278;28;20822;-72
2023/03/19 03:42:40;;;;;;;3.93;2.70;;;10.70;99.90;;;;;;5071796;28;20449;-72
2023/03/19 03:45:11;;;;;;;4.53;3.40;;;10.70;99.90;;;;;;5068324;28;20888;-72
2023/03/19 03:47:38;;;;;;;3.17;2.30;;;10.70;99.90;;;;;;5070352;28;20837;-72
2023/03/19 03:50:06;;;;;;;3.17;2.80;;;10.70;99.90;;;;;;5075193;28;20461;-72
2023/03/19 03:52:34;;;;;;;2.57;2.37;;;10.70;99.90;;;;;;5075401;28;20525;-72
2023/03/19 03:55:02;;;;;;;3.10;2.80;;;10.80;99.90;;;;;;5074454;28;20482;-72
2023/03/19 03:57:29;;;;;;;2.87;2.67;;;10.90;99.90;;;;;;5040477;28;20474;-72
2023/03/19 03:59:55;;;;;;;3.90;2.80;;;10.80;99.90;;;;;;5086127;28;20410;-73
2023/03/19 04:02:23;;;;;;;3.20;2.90;;;10.90;99.90;;;;;;5081454;28;20512;-72
2023/03/19 04:04:51;;;;;;;2.67;2.47;;;10.90;99.90;;;;;;5063481;28;20799;-73
2023/03/19 04:07:18;;;;;;;4.73;2.90;;;10.90;99.90;;;;;;5066658;28;20454;-73
2023/03/19 04:09:46;;;;;;;2.80;1.97;;;11.10;99.90;;;;;;5066049;28;20478;-73
2023/03/19 04:12:15;;;;;;;2.80;2.17;;;11.30;99.90;;;;;;5076150;28;20421;-73
2023/03/19 04:14:42;;;;;;;3.27;2.03;;;11.70;99.90;;;;;;5069904;28;20465;-73
2023/03/19 04:17:09;;;;;;;2.87;1.70;;;11.70;99.90;;;;;;5073880;28;20478;-73
2023/03/19 04:19:36;;;;;;;2.90;1.90;;;11.70;99.90;;;;;;5069902;28;20481;-73
2023/03/19 04:22:03;;;;;;;3.30;2.00;;;11.80;99.90;;;;;;5075259;28;20901;-72
2023/03/19 04:24:32;;;;;;;2.77;2.10;;;12.00;99.90;;;;;;5072952;28;20500;-72
2023/03/19 04:27:00;;;;;;;5.03;2.40;;;12.10;99.90;;;;;;5072711;28;20445;-73
2023/03/19 04:29:27;;;;;;;2.10;1.70;;;12.20;99.90;;;;;;5063078;28;20466;-73
2023/03/19 04:31:54;;;;;;;4.17;2.20;;;12.20;99.90;;;;;;5067792;28;20471;-72
2023/03/19 04:34:21;;;;;;;8.13;1.97;;;12.40;99.90;;;;;;5070106;28;20545;-72
2023/03/19 04:36:48;;;;;;;4.00;2.17;;;12.30;99.90;;;;;;5075364;28;20999;-72
2023/03/19 04:39:15;;;;;;;2.17;1.90;;;12.30;99.90;;;;;;5076332;28;20477;-72
2023/03/19 04:41:44;;;;;;;3.97;2.90;;;12.40;99.90;;;;;;5067473;28;20526;-73
2023/03/19 04:44:13;;;;;;;5.77;2.63;;;12.40;99.90;;;;;;5043354;28;20473;-72
2023/03/19 04:46:40;;;;;;;2.83;1.77;;;12.40;99.90;;;;;;5070879;28;20487;-73
2023/03/19 04:49:08;;;;;;;2.10;1.57;;;12.40;99.90;;;;;;5074615;28;20422;-72
2023/03/19 04:51:35;;;;;;;2.93;1.87;;;12.30;99.90;;;;;;5074538;28;20911;-73
2023/03/19 04:54:02;;;;;;;2.37;1.73;;;12.40;99.90;;;;;;5074709;28;20549;-73
2023/03/19 04:56:29;;;;;;;2.10;1.63;;;12.40;99.90;;;;;;5074177;28;20449;-73
2023/03/19 04:58:56;;;;;;;3.00;2.10;;;12.40;99.90;;;;;;5074197;28;20875;-73
2023/03/19 05:01:26;;;;;;;2.33;1.70;;;12.30;99.90;;;;;;5074464;28;20817;-72
2023/03/19 05:03:53;;;;;;;2.30;1.77;;;12.40;99.90;;;;;;5074315;28;20454;-73
2023/03/19 05:06:21;;;;;;;1.93;1.63;;;12.40;99.90;;;;;;5073412;28;20443;-73
2023/03/19 05:08:48;;;;;;;3.90;2.37;;;12.50;99.90;;;;;;5072564;28;20447;-73
2023/03/19 05:11:15;;;;;;;3.83;1.80;;;12.50;99.90;;;;;;5073645;28;20442;-73
2023/03/19 05:13:42;;;;;;;3.47;2.40;;;12.40;99.90;;;;;;5077886;28;20449;-73
2023/03/19 05:16:09;;;;;;;2.33;1.40;;;12.50;99.90;;;;;;5065307;28;20457;-73
2023/03/19 05:18:37;;;;;;;3.27;2.10;;;12.40;99.90;;;;;;5064544;28;20562;-72
2023/03/19 05:21:05;;;;;;;3.10;1.67;;;12.30;99.90;;;;;;5066767;28;20481;-73
2023/03/19 05:23:35;;;;;;;3.13;2.93;;;12.40;99.90;;;;;;5069486;28;20467;-72
2023/03/19 05:26:02;;;;;;;3.00;1.77;;;12.50;99.90;;;;;;5073449;28;20433;-72
2023/03/19 05:28:29;;;;;;;5.13;2.07;;;12.40;99.90;;;;;;5072561;28;20458;-72
2023/03/19 05:30:56;;;;;;;2.67;2.10;;;12.30;99.90;;;;;;5071519;28;20542;-73
2023/03/19 05:33:23;;;;;;;5.17;2.43;;;12.40;99.90;;;;;;5072731;28;20450;-72
2023/03/19 05:35:51;;;;;;;2.20;1.80;;;12.50;99.90;;;;;;5058969;28;20461;-72
2023/03/19 05:38:19;;;;;;;2.10;1.77;;;12.50;99.90;;;;;;5074879;28;20482;-72
2023/03/19 05:40:46;;;;;;;3.00;1.87;;;12.40;99.90;;;;;;5073140;28;20476;-72
2023/03/19 05:43:13;;;;;;;1.97;1.80;;;12.50;99.90;;;;;;5072954;28;20870;-72
2023/03/19 05:45:41;;;;;;;2.13;1.93;;;12.50;99.90;;;;;;5070761;28;20534;-72
2023/03/19 05:48:08;;;;;;;1.90;1.50;;;12.40;99.90;;;;;;5073157;28;20490;-72
2023/03/19 05:50:35;;;;;;;5.97;1.60;;;12.40;99.90;;;;;;5073508;28;20432;-72
2023/03/19 05:53:04;;;;;;;3.07;1.93;;;12.50;99.90;;;;;;5072679;28;20425;-72
2023/03/19 05:55:31;;;;;;;3.63;1.97;;;12.40;99.90;;;;;;5073189;28;21016;-72
2023/03/19 05:57:57;;;;;;;2.43;1.77;;;12.50;99.90;;;;;;5071711;28;20479;-72
2023/03/19 06:00:27;;;;;;;2.30;1.97;;;12.50;99.90;;;;;;5072446;28;20446;-72
2023/03/19 06:02:54;;;;;;;2.10;1.77;;;12.50;99.90;;;;;;5067356;28;20521;-72
2023/03/19 06:05:21;;;;;;;2.13;1.43;;;12.40;99.90;;;;;;5072476;28;20505;-72
2023/03/19 06:07:48;;;;;;;3.40;2.47;;;12.50;99.90;;;;;;5072604;28;20558;-72
2023/03/19 06:10:17;;;;;;;1.70;1.43;;;12.70;99.90;;;;;;5058394;28;20538;-72
2023/03/19 06:12:44;;;;;;;4.10;3.07;;;12.80;99.90;;;;;;5067829;28;20880;-73
2023/03/19 06:15:12;;;;;;;3.00;2.67;;;12.80;99.90;;;;;;5071978;28;20517;-73
2023/03/19 06:17:40;;;;;;;2.67;2.17;;;12.90;99.90;;;;;;5071954;28;20969;-73
2023/03/19 06:20:09;;;;;;;5.40;2.60;;;12.90;99.90;;;;;;5069141;28;20484;-73
2023/03/19 06:22:36;;;;;;;2.33;2.13;;;13.00;99.90;;;;;;5070823;28;21020;-73
2023/03/19 06:25:04;;;;;;;2.33;1.67;;;12.90;99.90;;;;;;5064761;28;20529;-73
2023/03/19 06:27:32;;;;;;;3.07;2.00;;;12.80;99.90;;;;;;5069847;28;21036;-73
2023/03/19 06:30:00;;;;;;;3.60;2.07;;;12.70;99.90;;;;;;5070001;28;20534;-73
2023/03/19 06:32:27;;;;;;;2.80;2.43;;;12.70;99.90;;;;;;5084213;28;20521;-73
2023/03/19 06:34:55;;;;;;;3.37;1.83;;;12.70;99.90;;;;;;5070008;28;20459;-72
2023/03/19 06:37:22;;;;;;;5.07;2.30;;;12.50;99.90;;;;;;5073019;28;20533;-72
2023/03/19 06:39:50;;;;;;;2.60;2.10;;;12.50;99.90;;;;;;5069066;28;20502;-72
2023/03/19 06:42:18;;;;;;;5.70;2.50;;;12.50;99.90;;;;;;5073307;28;20515;-74
2023/03/19 06:44:46;;;;;;;3.30;2.50;;;12.50;99.90;;;;;;5063764;28;20546;-73
2023/03/19 06:47:14;;;;;;;3.30;2.50;;;12.60;99.90;;;;;;5072728;28;20437;-72
2023/03/19 06:49:41;;;;;;;6.03;3.13;;;12.40;99.90;;;;;;5070856;28;20458;-73
2023/03/19 06:52:08;;;;;;;3.60;2.50;;;12.40;99.90;;;;;;5078434;28;20446;-73
2023/03/19 06:54:38;;;;;;;4.80;3.30;;;12.40;99.90;;;;;;5067792;28;20535;-73
2023/03/19 06:57:05;;;;;;;5.40;3.37;;;12.50;99.90;;;;;;5070282;28;20478;-73
2023/03/19 06:59:32;;;;;;;3.27;2.97;;;12.50;99.90;;;;;;5068360;28;20506;-73
2023/03/19 07:02:04;;;;;;;4.50;3.00;;;12.50;99.90;;;;;;5070020;28;20592;-73
2023/03/19 07:04:31;;;;;;;4.43;3.87;;;12.60;99.90;;;;;;5067048;28;20561;-73
2023/03/19 07:06:58;;;;;;;3.63;3.03;;;12.50;99.90;;;;;;5074410;28;20453;-73
2023/03/19 07:09:27;;;;;;;4.13;2.53;;;12.50;99.90;;;;;;5072616;28;20470;-74
2023/03/19 07:11:54;;;;;;;3.43;2.87;;;12.70;99.90;;;;;;5027832;28;20483;-73
2023/03/19 07:14:29;;;;;;;4.00;2.50;;;12.70;99.90;;;;;;5069680;28;20474;-73
2023/03/19 07:16:56;;;;;;;3.40;2.60;;;12.70;99.90;;;;;;5073251;28;20524;-73
2023/03/19 07:19:25;;;;;;;2.73;2.07;;;12.70;99.90;;;;;;5079604;28;21021;-72
2023/03/19 07:21:51;;;;;;;3.60;2.40;;;12.70;99.90;;;;;;5076136;28;20887;-72
2023/03/19 07:24:19;;;;;;;6.33;2.80;;;12.80;99.90;;;;;;5076128;28;20958;-72
2023/03/19 07:26:46;;;;;;;5.83;2.57;;;12.90;99.90;;;;;;5067659;28;20467;-72
2023/03/19 07:29:13;;;;;;;3.20;2.37;;;13.00;99.90;;;;;;5077546;28;20451;-72
2023/03/19 07:31:41;;;;;;;2.33;2.13;;;13.20;99.90;;;;;;5082231;28;20469;-72
2023/03/19 07:34:08;;;;;;;7.33;3.27;;;13.20;99.90;;;;;;5065815;28;20490;-73
2023/03/19 07:36:36;;;;;;;3.53;2.20;;;13.10;99.90;;;;;;5065777;28;20555;-72
2023/03/19 07:39:03;;;;;;;4.37;3.20;;;13.20;99.90;;;;;;5032568;28;20923;-73
2023/03/19 07:41:30;;;;;;;2.40;2.20;;;13.30;99.90;;;;;;5075492;28;20962;-72
2023/03/19 07:43:57;;;;;;;4.73;2.53;;;13.40;99.90;;;;;;5061283;28;20546;-72
2023/03/19 07:46:24;;;;;;;2.40;2.20;;;13.60;99.90;;;;;;5064156;28;20481;-73
2023/03/19 07:48:55;;;;;;;7.30;2.67;;;13.70;99.90;;;;;;5077458;28;20447;-72
2023/03/19 07:51:25;;;;;;;3.33;2.30;;;13.70;99.90;;;;;;5073812;28;20478;-72
2023/03/19 07:53:55;;;;;;;3.50;3.20;;;13.60;99.90;;;;;;5076373;28;20458;-73
2023/03/19 07:56:22;;;;;;;2.87;2.50;;;13.60;99.90;;;;;;5072070;28;20463;-72
2023/03/19 07:58:50;;;;;;;5.80;2.50;;;13.70;99.90;;;;;;5075529;28;20485;-72
2023/03/19 08:01:17;;;;;;;7.80;3.40;;;13.80;99.90;;;;;;5071975;28;20454;-72
2023/03/19 08:03:44;;;;;;;3.60;2.77;;;13.70;99.90;;;;;;5074187;28;20537;-72
2023/03/19 08:06:11;;;;;;;4.27;2.20;;;13.60;99.90;;;;;;5070692;28;20550;-72
2023/03/19 08:08:38;;;;;;;9.23;3.20;;;13.60;99.90;;;;;;5078232;28;20455;-73
2023/03/19 08:11:07;;;;;;;7.40;2.77;;;13.60;99.90;;;;;;5071885;28;20542;-72
2023/03/19 08:13:34;;;;;;;3.47;2.57;;;13.50;99.90;;;;;;5068836;28;20455;-72
2023/03/19 08:16:01;;;;;;;3.40;2.87;;;13.40;99.90;;;;;;5072233;28;20489;-72
2023/03/19 08:18:28;;;;;;;6.20;2.93;;;13.50;99.90;;;;;;5079264;28;20458;-72
2023/03/19 08:20:55;;;;;;;3.50;2.20;;;13.50;99.90;;;;;;5075717;28;20504;-72
2023/03/19 08:23:22;;;;;;;3.17;2.87;;;13.50;99.90;;;;;;5078649;28;20451;-72
2023/03/19 08:25:50;;;;;;;2.00;1.70;;;13.50;99.90;;;;;;5078175;28;20495;-72
2023/03/19 08:28:22;;;;;;;6.60;2.40;;;13.50;99.90;;;;;;5065504;28;20482;-75
2023/03/19 08:30:49;;;;;;;5.60;2.60;;;13.60;99.90;;;;;;5070336;28;20447;-75
2023/03/19 08:33:17;;;;;;;2.90;2.50;;;13.60;99.90;;;;;;5071477;28;20478;-75
2023/03/19 08:35:49;;;;;;;8.90;2.77;;;13.50;99.90;;;;;;5073168;28;20455;-75
2023/03/19 08:38:17;;;;;;;3.17;2.20;;;13.50;99.90;;;;;;5064641;28;20491;-76
2023/03/19 08:40:44;;;;;;;5.23;3.00;;;13.90;99.90;;;;;;5072516;28;20569;-76
2023/03/19 08:43:11;;;;;;;3.90;3.03;;;14.00;99.90;;;;;;5068281;28;20498;-75
2023/03/19 08:45:39;;;;;;;3.73;2.50;;;14.10;99.90;;;;;;5070904;28;20457;-73
2023/03/19 08:48:06;;;;;;;3.90;2.30;;;14.00;99.90;;;;;;5068546;28;21043;-74
2023/03/19 08:50:35;;;;;;;4.63;3.17;;;14.00;99.90;;;;;;5072675;28;20450;-74
2023/03/19 08:53:03;;;;;;;4.20;2.53;;;14.00;99.90;;;;;;5069294;28;20482;-73
2023/03/19 08:55:29;;;;;;;3.10;2.63;;;13.90;99.90;;;;;;5078951;28;20490;-73
2023/03/19 08:57:57;;;;;;;5.17;3.10;;;13.80;99.90;;;;;;5076652;28;20549;-73
2023/03/19 09:00:24;;;;;;;3.60;3.23;;;13.80;99.90;;;;;;5075519;28;20481;-73
2023/03/19 09:02:53;;;;;;;4.23;2.83;;;13.60;99.90;;;;;;5066668;28;20487;-74
2023/03/19 09:05:21;;;;;;;4.90;2.93;;;13.40;99.90;;;;;;5071115;28;20447;-74
2023/03/19 09:07:48;;;;;;;4.87;3.37;;;13.40;99.90;;;;;;5075304;28;20577;-73
2023/03/19 09:10:16;;;;;;;5.13;3.40;;;13.40;99.90;;;;;;5067252;28;20493;-73
2023/03/19 09:12:43;;;;;;;3.83;2.83;;;13.50;99.90;;;;;;5071271;28;20870;-73
2023/03/19 09:15:10;;;;;;;3.60;3.27;;;13.40;99.90;;;;;;5074622;28;20486;-73
2023/03/19 09:17:37;;;;;;;6.10;4.00;;;13.50;99.90;;;;;;5084809;28;20491;-73
2023/03/19 09:20:07;;;;;;;3.57;3.27;;;13.60;99.90;;;;;;5059751;28;20490;-74
2023/03/19 09:22:34;;;;;;;7.13;3.13;;;13.70;99.90;;;;;;5070834;28;20542;-74
2023/03/19 09:25:01;;;;;;;2.73;2.53;;;13.70;99.90;;;;;;5074152;28;20442;-73
2023/03/19 09:27:28;;;;;;;7.70;2.37;;;14.00;99.90;;;;;;5073893;28;20466;-73
2023/03/19 09:29:55;;;;;;;2.70;2.50;;;14.10;99.90;;;;;;5066335;28;20455;-73
2023/03/19 09:32:22;;;;;;;2.60;2.37;;;14.40;99.90;;;;;;5055495;28;20530;-73
2023/03/19 09:34:50;;;;;;;8.60;2.93;;;14.50;99.90;;;;;;5066299;28;20454;-73
2023/03/19 09:37:18;;;;;;;2.70;2.40;;;14.60;99.90;;;;;;5063463;28;20475;-73
2023/03/19 09:39:45;;;;;;;2.70;1.80;;;14.70;99.90;;;;;;5068705;28;20510;-74
2023/03/19 09:42:25;;;;;;;3.43;2.50;;;14.50;99.90;;;;;;5073620;28;20446;-74
2023/03/19 09:44:53;;;;;;;4.00;2.23;;;14.30;99.90;;;;;;5067089;28;20446;-74
2023/03/19 09:47:28;;;;;;;3.60;3.20;;;14.50;99.90;;;;;;5083855;28;20463;-74
2023/03/19 09:49:58;;;;;;;5.63;3.90;;;14.50;99.90;;;;;;5077052;28;20450;-74
2023/03/19 09:52:41;;;;;;;4.67;3.27;;;14.60;99.90;;;;;;5075414;28;20947;-74
2023/03/19 09:55:18;;;;;;;3.40;2.33;;;14.70;99.90;;;;;;5062506;28;20431;-74
2023/03/19 09:57:48;;;;;;;1.40;1.13;;;14.90;99.90;;;;;;5075017;28;20611;-73
2023/03/19 10:00:27;;;;;;;3.70;2.80;;;14.60;99.90;;;;;;5082691;28;20520;-73
2023/03/19 10:03:01;;;;;;;5.00;2.50;;;14.50;99.90;;;;;;5074090;28;20442;-73
2023/03/19 10:05:42;;;;;;;3.63;2.80;;;14.70;99.90;;;;;;5073919;28;20454;-74
2023/03/19 10:08:32;;;;;;;2.53;2.17;;;14.90;99.90;;;;;;5073488;28;20547;-73
2023/03/19 10:11:19;;;;;;;2.80;2.23;;;14.80;99.90;;;;;;5062351;28;20551;-74
2023/03/19 10:13:59;;;;;;;3.30;2.20;;;15.00;99.90;;;;;;5072478;28;20438;-74
2023/03/19 10:16:28;;;;;;;6.53;3.23;;;15.20;99.90;;;;;;5077520;28;20470;-74
2023/03/19 10:19:01;;;;;;;4.37;2.87;;;15.30;99.90;;;;;;5073768;28;20492;-74
2023/03/19 10:21:34;;;;;;;4.23;2.73;;;15.50;99.90;;;;;;5072218;28;20482;-74
2023/03/19 10:24:06;;;;;;;4.83;2.90;;;15.70;99.90;;;;;;5068486;28;20453;-74
2023/03/19 10:26:35;;;;;;;3.43;2.67;;;15.70;99.90;;;;;;5016473;28;20479;-74
2023/03/19 10:29:07;;;;;;;2.70;1.93;;;15.90;99.90;;;;;;5080291;28;20457;-74
2023/03/19 10:31:46;;;;;;;5.03;3.07;;;16.00;99.90;;;;;;5041037;28;20439;-72
2023/03/19 10:34:33;;;;;;;6.03;3.43;;;16.10;99.90;;;;;;5062906;28;20950;-74
2023/03/19 10:37:03;;;;;;;6.00;3.03;;;16.20;99.90;;;;;;5061504;28;20555;-74
2023/03/19 10:39:37;;;;;;;3.90;2.93;;;16.10;99.90;;;;;;5067651;28;20814;-74
2023/03/19 10:42:21;;;;;;;2.60;2.40;;;16.30;99.90;;;;;;5062694;28;20529;-74
2023/03/19 10:44:51;;;;;;;2.20;1.90;;;16.20;99.90;;;;;;5052256;28;20442;-74
2023/03/19 10:47:21;;;;;;;12.37;3.13;;;16.20;99.90;;;;;;5058907;28;20467;-74
2023/03/19 10:49:51;;;;;;;4.07;2.80;;;16.40;99.90;;;;;;5078341;28;20454;-74
2023/03/19 10:52:27;;;;;;;4.87;3.20;;;16.80;99.90;;;;;;5070719;28;20453;-74
2023/03/19 10:55:02;;;;;;;3.53;2.53;;;17.20;99.90;;;;;;5064869;28;20479;-74
2023/03/19 10:57:30;;;;;;;2.60;2.17;;;17.10;99.90;;;;;;5067830;28;20553;-74
2023/03/19 11:00:03;;;;;;;4.23;2.90;;;17.00;99.90;;;;;;5072778;28;20490;-74
2023/03/19 11:02:31;;;;;;;3.60;2.60;;;17.10;99.90;;;;;;5060702;28;20459;-72
2023/03/19 11:05:19;;;;;;;4.87;2.03;;;17.20;99.90;;;;;;5054953;28;20447;-72
2023/03/19 11:07:50;;;;;;;2.10;1.77;;;17.40;99.90;;;;;;5072626;28;20482;-73
2023/03/19 11:10:20;;;;;;;2.50;2.10;;;17.40;99.90;;;;;;5073034;28;20544;-73
2023/03/19 11:12:53;;;;;;;2.97;2.77;;;18.50;99.90;;;;;;5061353;28;20450;-73
2023/03/19 11:15:22;;;;;;;3.67;2.30;;;19.90;99.90;;;;;;5053038;28;20447;-73
2023/03/19 11:17:56;;;;;;;3.40;2.60;;;20.30;99.90;;;;;;5057285;28;20487;-73
2023/03/19 11:20:27;;;;;;;2.60;2.37;;;20.70;99.90;;;;;;5060102;28;20524;-73
2023/03/19 11:23:00;;;;;;;3.20;2.43;;;20.40;99.90;;;;;;5066431;28;20537;-73
2023/03/19 11:25:31;;;;;;;3.13;2.07;;;20.60;99.90;;;;;;5054623;28;20450;-73
2023/03/19 11:28:01;;;;;;;2.70;2.50;;;21.40;99.90;;;;;;5073403;28;20512;-73
2023/03/19 11:30:36;;;;;;;3.70;2.47;;;22.00;99.90;;;;;;5083721;28;20445;-73
2023/03/19 11:33:37;;;;;;;2.77;2.53;;;21.50;99.90;;;;;;5076194;28;20459;-73
2023/03/19 11:36:13;;;;;;;6.30;3.23;;;20.50;99.90;;;;;;5063414;28;20998;-73
2023/03/19 11:38:53;;;;;;;2.53;2.33;;;20.30;99.90;;;;;;5077123;28;20461;-73
2023/03/19 11:41:30;;;;;;;3.57;3.27;;;20.50;99.90;;;;;;5077059;28;20466;-73
2023/03/19 11:44:02;;;;;;;3.37;3.07;;;20.40;99.90;;;;;;5077928;28;20446;-73
2023/03/19 11:46:46;;;;;;;5.10;3.87;;;20.50;99.90;;;;;;5075106;28;20854;-73
2023/03/19 11:49:32;;;;;;;4.77;3.97;;;21.50;99.90;;;;;;5074512;28;20458;-73
2023/03/19 11:52:08;;;;;;;4.50;3.47;;;21.10;99.90;;;;;;5057858;28;20778;-73
2023/03/19 11:54:44;;;;;;;4.00;3.40;;;20.80;99.90;;;;;;5073839;28;20862;-73
2023/03/19 11:57:22;;;;;;;13.23;3.57;;;20.10;99.90;;;;;;5057212;28;20463;-73
2023/03/19 12:00:13;;;;;;;3.40;3.10;;;19.90;99.90;;;;;;5058204;28;20486;-73
2023/03/19 12:03:26;;;;;;;5.67;3.67;;;19.20;99.90;;;;;;5071001;28;20455;-73
2023/03/19 12:05:57;;;;;;;2.83;2.63;;;18.50;99.90;;;;;;5076004;28;20480;-73
2023/03/19 12:08:33;;;;;;;4.30;3.97;;;17.90;99.90;;;;;;5076413;28;20441;-73
2023/03/19 12:11:12;;;;;;;4.47;4.07;;;18.00;99.90;;;;;;5076502;28;20439;-73
2023/03/19 12:13:55;;;;;;;3.83;3.50;;;18.10;99.90;;;;;;5061129;28;20439;-73
2023/03/19 12:16:30;;;;;;;3.67;3.37;;;18.10;99.90;;;;;;5075307;28;20501;-73
2023/03/19 12:19:23;;;;;;;3.30;3.00;;;18.10;99.90;;;;;;5069088;28;20923;-73
2023/03/19 12:22:04;;;;;;;2.90;2.70;;;17.60;99.90;;;;;;5059009;28;20506;-72
2023/03/19 12:24:42;;;;;;;4.53;3.50;;;16.80;99.90;;;;;;5076033;28;20502;-73
2023/03/19 12:27:22;;;;;;;3.80;2.63;;;16.20;99.90;;;;;;5066591;28;20482;-73
2023/03/19 12:29:58;;;;;;;4.63;1.97;;;16.20;99.90;;;;;;5068249;28;20546;-73
2023/03/19 12:32:39;;;;;;;4.60;2.43;;;15.80;99.90;;;;;;5067900;28;20537;-73
2023/03/19 12:35:15;;;;;;;2.20;1.90;;;15.50;99.90;;;;;;5069314;28;20446;-73
2023/03/19 12:37:49;;;;;;;2.23;1.70;;;15.40;99.90;;;;;;5075522;28;20489;-73
2023/03/19 12:40:27;;;;;;;1.70;1.47;;;15.30;99.90;;;;;;5075749;28;20485;-72
2023/03/19 12:42:58;;;;;;;1.80;1.40;;;15.10;99.90;;;;;;5075890;28;20447;-73
2023/03/19 12:45:32;;;;;;;2.33;1.27;;;15.10;99.90;;;;;;5080827;28;20500;-73
2023/03/19 12:48:05;;;;;;;3.83;1.17;;;15.30;99.90;;;;;;5074297;28;20463;-73
2023/03/19 12:50:36;;;;;;;1.70;1.30;;;15.20;99.90;;;;;;5082019;28;20840;-73
2023/03/19 12:53:07;;;;;;;2.03;1.30;;;14.90;99.90;;;;;;5073467;28;20516;-73
2023/03/19 12:55:41;;;;;;;4.00;1.50;;;14.90;99.90;;;;;;5074259;28;20455;-73
2023/03/19 12:58:17;;;;;;;2.53;1.97;;;14.90;99.90;;;;;;5073992;28;20898;-73